Time;durP1;ratioP1;P1;durP2;ratioP2;P2;SDS_P1;SDS_P2;PMS_P1;PMS_P2;Temp;Humidity;BMP_temperature;BMP_pressure;BME280_temperature;BME280_humidity;BME280_pressure;Samples;Min_cycle;Max_cycle;Signal;HPM_P1;HPM_P2
2024/02/01 00:01:03;;;;;;;7.60;6.63;;;;;;;2.52;100.00;100162.47;5033376;28;20038;-70
2024/02/01 00:03:29;;;;;;;11.13;6.70;;;;;;;2.38;100.00;100134.69;5048131;28;20103;-69
2024/02/01 00:05:54;;;;;;;10.90;6.63;;;;;;;2.34;100.00;100149.06;5041395;28;20090;-69
2024/02/01 00:08:20;;;;;;;7.50;6.80;;;;;;;1.69;100.00;100021.25;5039546;28;20122;-67
2024/02/01 00:10:45;;;;;;;7.60;6.70;;;;;;;2.43;100.00;100145.66;5042878;28;20120;-68
2024/02/01 00:13:11;;;;;;;6.37;5.03;;;;;;;2.44;100.00;100144.69;5036959;28;20033;-68
2024/02/01 00:15:36;;;;;;;6.37;5.67;;;;;;;2.30;100.00;100122.16;5034536;28;20047;-68
2024/02/01 00:18:01;;;;;;;7.40;4.67;;;;;;;2.40;100.00;100132.78;5049952;28;20095;-68
2024/02/01 00:20:27;;;;;;;5.50;4.87;;;;;;;2.35;100.00;100120.03;5046728;28;20753;-71
2024/02/01 00:22:53;;;;;;;6.33;5.07;;;;;;;2.37;100.00;100112.00;5057625;28;20451;-69
2024/02/01 00:25:18;;;;;;;4.97;4.47;;;;;;;2.44;100.00;100119.25;5041944;28;20450;-66
2024/02/01 00:27:44;;;;;;;4.97;4.47;;;;;;;2.47;100.00;100107.66;5044865;28;20044;-67
2024/02/01 00:30:09;;;;;;;8.03;4.57;;;;;;;2.41;100.00;100103.75;5033766;28;20046;-69
2024/02/01 00:32:35;;;;;;;5.23;4.40;;;;;;;2.43;100.00;100096.56;5047800;28;20069;-68
2024/02/01 00:35:00;;;;;;;4.17;3.70;;;;;;;2.44;100.00;100079.84;5040777;28;20550;-68
2024/02/01 00:37:26;;;;;;;3.50;3.20;;;;;;;2.42;100.00;100058.09;5040170;28;20517;-71
2024/02/01 00:39:51;;;;;;;2.50;2.30;;;;;;;2.41;100.00;100051.19;5041456;28;20116;-69
2024/02/01 00:42:17;;;;;;;3.63;2.90;;;;;;;2.12;100.00;100008.94;5035291;28;20033;-69
2024/02/01 00:44:42;;;;;;;3.53;2.80;;;;;;;2.41;100.00;100050.34;5038469;28;20128;-69
2024/02/01 00:47:08;;;;;;;3.40;3.10;;;;;;;2.39;100.00;100052.28;5036674;28;20040;-68
2024/02/01 00:49:34;;;;;;;3.73;2.97;;;;;;;2.27;100.00;100032.25;5042032;28;20041;-68
2024/02/01 00:52:00;;;;;;;3.20;2.90;;;;;;;2.42;100.00;100063.34;5040936;28;20065;-68
2024/02/01 00:54:26;;;;;;;3.00;2.80;;;;;;;2.41;100.00;100058.22;5025106;28;20859;-68
2024/02/01 00:56:51;;;;;;;2.63;2.43;;;;;;;2.07;100.00;100005.03;5037169;28;20053;-68
2024/02/01 00:59:17;;;;;;;3.83;2.77;;;;;;;2.37;100.00;100056.81;5042240;28;20036;-69
2024/02/01 01:01:42;;;;;;;3.33;2.60;;;;;;;2.32;100.00;100048.50;5041826;28;20090;-67
2024/02/01 01:04:08;;;;;;;4.03;3.63;;;;;;;2.22;100.00;100030.00;5038509;28;20183;-68
2024/02/01 01:06:33;;;;;;;3.73;3.30;;;;;;;2.25;100.00;100031.53;5042200;28;20064;-68
2024/02/01 01:08:59;;;;;;;3.60;3.30;;;;;;;2.25;100.00;100026.28;5044499;28;20041;-66
2024/02/01 01:11:26;;;;;;;2.77;2.43;;;;;;;2.26;100.00;100028.78;5041146;28;20037;-69
2024/02/01 01:13:52;;;;;;;2.37;2.07;;;;;;;2.12;100.00;99997.59;5036290;28;20424;-69
2024/02/01 01:16:17;;;;;;;3.13;2.83;;;;;;;2.01;100.00;100001.09;5038208;28;20300;-68
2024/02/01 01:18:44;;;;;;;2.47;2.27;;;;;;;1.69;100.00;99947.75;5035548;28;20605;-67
2024/02/01 01:21:12;;;;;;;3.17;2.07;;;;;;;2.11;100.00;100011.69;5042064;28;20107;-69
2024/02/01 01:23:37;;;;;;;2.40;2.20;;;;;;;2.13;100.00;100015.03;5041091;28;20425;-67
2024/02/01 01:26:03;;;;;;;2.23;2.00;;;;;;;2.14;100.00;100017.50;5043105;28;20526;-66
2024/02/01 01:28:28;;;;;;;3.77;2.40;;;;;;;2.02;100.00;99997.50;5041383;28;20043;-69
2024/02/01 01:30:55;;;;;;;1.90;1.80;;;;;;;2.12;100.00;99997.59;5039722;28;20128;-68
2024/02/01 01:33:21;;;;;;;2.43;2.23;;;;;;;2.03;100.00;99979.97;5047763;28;20104;-68
2024/02/01 01:35:48;;;;;;;2.80;2.53;;;;;;;2.10;100.00;99984.59;5040451;28;20347;-67
2024/02/01 01:38:15;;;;;;;2.10;1.90;;;;;;;1.99;100.00;99965.41;5041730;28;20486;-67
2024/02/01 01:40:41;;;;;;;2.60;2.00;;;;;;;2.02;100.00;99971.25;5046206;28;20710;-70
2024/02/01 01:43:06;;;;;;;3.03;2.60;;;;;;;1.96;100.00;99944.66;5042498;28;20276;-71
2024/02/01 01:45:32;;;;;;;2.30;2.10;;;;;;;2.00;100.00;99938.19;5042445;28;20088;-69
2024/02/01 01:47:58;;;;;;;2.63;2.43;;;;;;;2.15;100.00;99950.88;5040853;28;20404;-68
2024/02/01 01:50:23;;;;;;;3.47;2.60;;;;;;;2.10;100.00;99924.19;5042216;28;20038;-68
2024/02/01 01:52:50;;;;;;;2.20;2.00;;;;;;;1.84;100.00;99878.25;5042484;28;20071;-69
2024/02/01 01:55:17;;;;;;;2.10;1.90;;;;;;;1.90;100.00;99876.91;5044359;28;20132;-68
2024/02/01 01:57:43;;;;;;;2.60;2.00;;;;;;;2.01;100.00;99889.94;5021270;28;20296;-70
2024/02/01 02:00:10;;;;;;;3.10;1.93;;;;;;;1.94;100.00;99876.50;5042643;28;20343;-67
2024/02/01 02:02:36;;;;;;;1.90;1.80;;;;;;;1.90;100.00;99856.72;5047986;28;20291;-69
2024/02/01 02:05:02;;;;;;;3.00;1.97;;;;;;;2.09;100.00;99875.22;5040653;28;20296;-71
2024/02/01 02:07:29;;;;;;;2.20;2.00;;;;;;;2.01;100.00;99864.53;5039066;28;20307;-69
2024/02/01 02:10:00;;;;;;;2.50;2.30;;;;;;;2.09;100.00;99856.84;5044514;28;20307;-67
2024/02/01 02:12:26;;;;;;;2.50;2.30;;;;;;;2.12;100.00;99856.59;5048295;28;20428;-68
2024/02/01 02:15:03;;;;;;;3.23;2.57;;;;;;;2.13;100.00;99855.63;5023222;28;20390;-69
2024/02/01 02:17:33;;;;;;;4.23;2.90;;;;;;;1.98;100.00;99821.94;5036060;28;20334;-68
2024/02/01 02:20:18;;;;;;;4.07;3.53;;;;;;;2.16;100.00;99847.47;5045633;28;20307;-68
2024/02/01 02:22:45;;;;;;;3.57;3.27;;;;;;;1.91;100.00;99794.56;5043091;28;20300;-69
2024/02/01 02:25:13;;;;;;;3.77;2.90;;;;;;;2.14;100.00;99838.91;5042046;28;20033;-67
2024/02/01 02:27:41;;;;;;;3.40;2.67;;;;;;;1.33;100.00;99716.34;5036409;28;20280;-68
2024/02/01 02:30:07;;;;;;;3.70;3.20;;;;;;;2.13;100.00;99824.09;5042052;28;20068;-67
2024/02/01 02:32:33;;;;;;;2.80;2.60;;;;;;;2.22;100.00;99840.88;5046674;28;20378;-69
2024/02/01 02:34:59;;;;;;;5.83;5.13;;;;;;;2.18;100.00;99818.44;5042441;28;20732;-69
2024/02/01 02:37:24;;;;;;;3.70;3.13;;;;;;;2.20;100.00;99820.94;5041290;28;20543;-69
2024/02/01 02:39:50;;;;;;;3.30;3.00;;;;;;;2.18;100.00;99803.53;5042200;28;20275;-68
2024/02/01 02:42:16;;;;;;;3.40;2.83;;;;;;;2.28;100.00;99802.72;5039735;28;20076;-67
2024/02/01 02:44:41;;;;;;;3.63;2.40;;;;;;;2.24;100.00;99798.69;5048608;28;20053;-67
2024/02/01 02:47:07;;;;;;;4.03;2.70;;;;;;;2.31;100.00;99807.69;5041251;28;20053;-69
2024/02/01 02:49:35;;;;;;;3.67;2.43;;;;;;;2.30;100.00;99796.34;5048225;28;20048;-68
2024/02/01 02:52:01;;;;;;;2.47;2.28;;;;;;;2.29;100.00;99783.34;5052629;28;20110;-69
2024/02/01 02:54:26;;;;;;;3.20;2.90;;;;;;;2.10;100.00;99737.69;5041082;28;20378;-68
2024/02/01 02:56:52;;;;;;;2.57;2.37;;;;;;;2.35;100.00;99777.59;5046409;28;20049;-71
2024/02/01 02:59:17;;;;;;;4.23;3.50;;;;;;;2.39;100.00;99776.34;5044935;28;20048;-68
2024/02/01 03:01:44;;;;;;;3.13;2.87;;;;;;;2.23;100.00;99757.63;5039986;28;20048;-70
2024/02/01 03:04:10;;;;;;;2.50;2.30;;;;;;;2.33;100.00;99769.00;5042727;28;20496;-68
2024/02/01 03:06:35;;;;;;;3.10;2.53;;;;;;;2.27;100.00;99759.00;5042834;28;20272;-68
2024/02/01 03:09:01;;;;;;;3.10;2.80;;;;;;;2.30;100.00;99756.13;5034702;28;20037;-68
2024/02/01 03:11:26;;;;;;;2.67;2.47;;;;;;;2.15;100.00;99732.03;5042113;28;20040;-67
2024/02/01 03:13:52;;;;;;;2.30;2.10;;;;;;;2.34;100.00;99760.16;5031588;28;20444;-68
2024/02/01 03:16:18;;;;;;;3.53;2.03;;;;;;;2.32;100.00;99746.34;5039060;28;20416;-70
2024/02/01 03:18:46;;;;;;;2.23;2.03;;;;;;;2.34;100.00;99747.03;5051892;28;20617;-70
2024/02/01 03:21:13;;;;;;;2.50;1.93;;;;;;;2.27;100.00;99738.00;5045846;28;20319;-69
2024/02/01 03:23:43;;;;;;;2.00;1.80;;;;;;;2.25;100.00;99739.94;5042804;28;20284;-68
2024/02/01 03:26:10;;;;;;;2.30;1.83;;;;;;;2.32;100.00;99726.16;5040863;28;20291;-70
2024/02/01 03:28:40;;;;;;;3.33;1.80;;;;;;;2.34;100.00;99726.84;5021858;28;20284;-68
2024/02/01 03:31:05;;;;;;;2.20;1.70;;;;;;;2.35;100.00;99732.94;5047557;28;20288;-71
2024/02/01 03:33:38;;;;;;;1.80;1.63;;;;;;;2.23;100.00;99707.72;5043966;28;20763;-67
2024/02/01 03:36:08;;;;;;;1.80;1.70;;;;;;;2.25;100.00;99716.28;5038301;28;20073;-68
2024/02/01 03:38:35;;;;;;;1.90;1.70;;;;;;;2.24;100.00;99706.75;5037460;28;20272;-68
2024/02/01 03:41:01;;;;;;;1.60;1.47;;;;;;;2.20;100.00;99687.81;5042953;28;20287;-68
2024/02/01 03:43:28;;;;;;;2.47;2.00;;;;;;;2.24;100.00;99691.00;5043325;28;20287;-70
2024/02/01 03:45:57;;;;;;;2.20;1.77;;;;;;;2.18;100.00;99681.84;5038583;28;20045;-69
2024/02/01 03:48:23;;;;;;;4.60;1.50;;;;;;;2.23;100.00;99694.59;5038842;28;20287;-68
2024/02/01 03:50:52;;;;;;;2.70;2.20;;;;;;;2.09;100.00;99673.00;5042518;28;20282;-71
2024/02/01 03:53:18;;;;;;;;;;;;;;;2.19;100.00;99694.03;5042762;28;20044;-68
2024/02/01 03:55:48;;;;;;;1.77;1.60;;;;;;;2.02;100.00;99687.59;5033616;28;19924;-67
2024/02/01 03:58:16;;;;;;;1.77;1.50;;;;;;;2.06;100.00;99683.78;5035190;28;20030;-68
2024/02/01 04:00:42;;;;;;;2.40;1.87;;;;;;;1.93;100.00;99672.66;5036178;28;20284;-71
2024/02/01 04:03:14;;;;;;;1.60;1.30;;;;;;;1.99;100.00;99679.19;5045677;28;20275;-69
2024/02/01 04:05:40;;;;;;;1.83;1.50;;;;;;;1.93;100.00;99671.84;5044464;28;20044;-68
2024/02/01 04:08:09;;;;;;;3.50;1.80;;;;;;;2.00;100.00;99684.28;5042511;28;20325;-69
2024/02/01 04:10:36;;;;;;;3.40;1.40;;;;;;;1.78;100.00;99642.53;5038386;28;20719;-70
2024/02/01 04:13:07;;;;;;;2.00;1.60;;;;;;;1.91;100.00;99656.22;5050031;28;20278;-66
2024/02/01 04:15:36;;;;;;;2.63;1.40;;;;;;;1.76;100.00;99639.19;5033164;28;20301;-69
2024/02/01 04:18:04;;;;;;;1.85;1.45;;;;;;;2.01;100.00;99680.69;5041045;28;20280;-70
2024/02/01 04:20:31;;;;;;;4.03;1.43;;;;;;;2.00;100.00;99662.44;5040246;28;20052;-68
2024/02/01 04:22:57;;;;;;;4.03;1.53;;;;;;;1.97;100.00;99663.56;5039615;28;20361;-70
2024/02/01 04:25:26;;;;;;;2.67;1.80;;;;;;;1.88;100.00;99646.00;5033591;28;20267;-69
2024/02/01 04:27:53;;;;;;;2.03;1.30;;;;;;;1.93;100.00;99649.03;5041840;28;20520;-71
2024/02/01 04:30:20;;;;;;;2.13;1.50;;;;;;;1.90;100.00;99641.44;5046543;28;20291;-70
2024/02/01 04:32:47;;;;;;;2.10;1.43;;;;;;;1.91;100.00;99623.88;5040729;28;20283;-69
2024/02/01 04:35:14;;;;;;;1.90;1.53;;;;;;;1.92;100.00;99622.91;5043398;28;20381;-71
2024/02/01 04:37:52;;;;;;;2.00;1.50;;;;;;;1.74;100.00;99599.97;5044215;28;20322;-71
2024/02/01 04:40:18;;;;;;;3.05;1.77;;;;;;;1.81;100.00;99619.44;5039331;28;20287;-69
2024/02/01 04:42:50;;;;;;;4.43;1.93;;;;;;;1.63;100.00;99580.84;5038525;28;20087;-70
2024/02/01 04:45:18;;;;;;;3.33;1.40;;;;;;;1.69;100.00;99585.56;5038176;28;20052;-70
2024/02/01 04:47:46;;;;;;;4.77;1.70;;;;;;;1.69;100.00;99570.63;5035595;28;20283;-69
2024/02/01 04:50:13;;;;;;;3.35;1.85;;;;;;;1.82;100.00;99580.91;5041688;28;20291;-67
2024/02/01 04:52:38;;;;;;;2.90;1.50;;;;;;;1.82;100.00;99567.78;5039735;28;20041;-66
2024/02/01 04:55:05;;;;;;;2.50;2.03;;;;;;;1.67;100.00;99535.00;5049770;28;20270;-70
2024/02/01 04:57:31;;;;;;;2.93;1.80;;;;;;;1.81;100.00;99558.25;5042943;28;20497;-69
2024/02/01 04:59:56;;;;;;;5.40;1.40;;;;;;;1.74;100.00;99536.13;5046976;28;20297;-72
2024/02/01 05:02:22;;;;;;;2.23;1.70;;;;;;;1.55;100.00;99508.06;5033375;28;20466;-71
2024/02/01 05:04:47;;;;;;;2.37;2.07;;;;;;;1.53;100.00;99481.97;5031528;28;20065;-70
2024/02/01 05:07:13;;;;;;;1.93;1.83;;;;;;;1.81;100.00;99535.44;5050235;28;20033;-70
2024/02/01 05:09:41;;;;;;;3.40;2.00;;;;;;;1.60;100.00;99507.66;5050035;28;20046;-70
2024/02/01 05:12:07;;;;;;;5.10;3.45;;;;;;;1.60;100.00;99489.28;5049350;28;20065;-69
2024/02/01 05:14:36;;;;;;;3.67;1.73;;;;;;;1.72;100.00;99514.41;5053428;28;20087;-70
2024/02/01 05:17:02;;;;;;;2.58;1.70;;;;;;;1.65;100.00;99503.66;5049400;28;20071;-69
2024/02/01 05:19:28;;;;;;;2.63;2.13;;;;;;;1.38;100.00;99449.19;5052258;28;20053;-71
2024/02/01 05:21:54;;;;;;;4.37;2.07;;;;;;;1.70;100.00;99503.22;5045418;28;20307;-68
2024/02/01 05:24:23;;;;;;;5.40;2.73;;;;;;;1.53;100.00;99463.59;5047653;28;20064;-70
2024/02/01 05:26:51;;;;;;;4.17;2.50;;;;;;;1.70;100.00;99476.97;5053706;28;20282;-69
2024/02/01 05:29:24;;;;;;;3.73;2.10;;;;;;;1.63;100.00;99454.88;5048650;28;20346;-72
2024/02/01 05:31:51;;;;;;;4.50;2.13;;;;;;;1.71;100.00;99457.66;5052764;28;20268;-69
2024/02/01 05:34:18;;;;;;;3.63;2.20;;;;;;;1.75;100.00;99464.31;5046906;28;20386;-70
2024/02/01 05:36:47;;;;;;;5.13;2.60;;;;;;;1.37;100.00;99381.97;5041282;28;20791;-69
2024/02/01 05:39:25;;;;;;;3.47;2.17;;;;;;;1.60;100.00;99429.75;5046257;28;20283;-68
2024/02/01 05:41:53;;;;;;;4.97;3.10;;;;;;;1.64;100.00;99422.44;5039179;28;20524;-71
2024/02/01 05:44:20;;;;;;;3.93;2.17;;;;;;;1.70;100.00;99427.13;5040985;28;20033;-70
2024/02/01 05:46:49;;;;;;;4.73;2.40;;;;;;;1.53;100.00;99402.41;5046182;28;20284;-69
2024/02/01 05:49:18;;;;;;;7.13;2.33;;;;;;;1.54;100.00;99399.66;5034253;28;20279;-70
2024/02/01 05:51:45;;;;;;;4.72;2.25;;;;;;;1.34;100.00;99360.44;5033833;28;20284;-69
2024/02/01 05:54:11;;;;;;;4.67;2.60;;;;;;;1.57;100.00;99380.19;5037001;28;20056;-71
2024/02/01 05:56:36;;;;;;;5.67;2.17;;;;;;;1.54;100.00;99368.16;5051509;28;20374;-68
2024/02/01 05:59:02;;;;;;;6.53;2.50;;;;;;;1.50;100.00;99366.78;5037417;28;20473;-70
2024/02/01 06:01:27;;;;;;;7.13;2.80;;;;;;;1.42;100.00;99348.28;5047906;28;20033;-72
2024/02/01 06:03:53;;;;;;;5.63;2.47;;;;;;;1.43;100.00;99342.06;5045301;28;20041;-70
2024/02/01 06:06:18;;;;;;;4.17;2.43;;;;;;;1.54;100.00;99357.66;5032548;28;20559;-68
2024/02/01 06:08:44;;;;;;;5.83;2.70;;;;;;;1.55;100.00;99363.75;5043631;28;20079;-68
2024/02/01 06:11:09;;;;;;;4.90;2.30;;;;;;;1.44;100.00;99340.25;5043270;28;20134;-69
2024/02/01 06:13:35;;;;;;;5.73;2.70;;;;;;;1.38;100.00;99320.66;5043339;28;20063;-69
2024/02/01 06:16:00;;;;;;;6.23;2.40;;;;;;;1.22;100.00;99294.19;5048349;28;20037;-70
2024/02/01 06:18:32;;;;;;;3.87;2.43;;;;;;;1.51;100.00;99336.97;5043944;28;20119;-70
2024/02/01 06:20:57;;;;;;;3.67;2.27;;;;;;;1.59;100.00;99353.78;5048695;28;20127;-68
2024/02/01 06:23:23;;;;;;;4.63;2.30;;;;;;;1.54;100.00;99320.94;5044089;28;20339;-70
2024/02/01 06:25:48;;;;;;;6.03;3.00;;;;;;;1.64;100.00;99327.97;5038818;28;20042;-71
2024/02/01 06:28:14;;;;;;;9.13;2.77;;;;;;;1.53;100.00;99313.22;5038273;28;20038;-70
2024/02/01 06:30:39;;;;;;;4.67;2.50;;;;;;;1.64;100.00;99320.09;5039290;28;20527;-68
2024/02/01 06:33:05;;;;;;;7.00;2.40;;;;;;;0.86;100.00;99188.22;5036348;28;20045;-69
2024/02/01 06:35:33;;;;;;;8.33;2.50;;;;;;;1.61;100.00;99312.50;5031175;28;20044;-70
2024/02/01 06:38:15;;;;;;;5.88;3.05;;;;;;;1.61;100.00;99302.00;5047535;28;20202;-67
2024/02/01 06:43:17;;;;;;;3.27;2.57;;;;;;;1.64;100.00;99301.72;5037913;28;20340;-72
2024/02/01 06:45:47;;;;;;;8.03;3.00;;;;;;;1.65;100.00;99285.00;5048611;28;20786;-72
2024/02/01 06:48:13;;;;;;;5.33;2.73;;;;;;;1.54;100.00;99267.63;5045839;28;20279;-71
2024/02/01 06:53:20;;;;;;;6.47;2.57;;;;;;;1.31;100.00;99219.06;5034307;28;20473;-71
2024/02/01 06:56:01;;;;;;;6.07;3.20;;;;;;;1.55;100.00;99246.50;5049823;28;20299;-69
2024/02/01 06:58:39;;;;;;;6.63;2.47;;;;;;;1.70;100.00;99259.97;5042297;28;20033;-72
2024/02/01 07:02:03;;;;;;;5.03;2.63;;;;;;;1.73;100.00;99251.00;5045783;28;20264;-71
2024/02/01 07:04:07;;;;;;;5.93;2.40;;;;;;;1.64;100.00;99236.09;5032996;28;20325;-69
2024/02/01 07:06:38;;;;;;;4.68;2.22;;;;;;;1.73;100.00;99261.47;5043063;28;20280;-69
2024/02/01 07:09:17;;;;;;;5.63;2.80;;;;;;;1.57;100.00;99219.28;5044970;28;20496;-69
2024/02/01 07:11:59;;;;;;;4.63;2.30;;;;;;;1.67;100.00;99235.81;5038130;28;20794;-70
2024/02/01 07:14:36;;;;;;;7.60;3.03;;;;;;;1.68;100.00;99233.06;5039386;28;20041;-69
2024/02/01 07:17:26;;;;;;;6.77;3.23;;;;;;;1.57;100.00;99217.50;5040331;28;20357;-71
2024/02/01 07:19:56;;;;;;;6.50;2.40;;;;;;;1.49;100.00;99207.72;5038685;28;20323;-70
2024/02/01 07:23:00;;;;;;;5.30;2.90;;;;;;;1.57;100.00;99216.66;5043507;28;20287;-69
2024/02/01 07:25:47;;;;;;;3.47;2.50;;;;;;;1.18;100.00;99145.97;5046534;28;20833;-71
2024/02/01 07:58:19;;;;;;;7.20;3.17;;;;;;;1.29;100.00;99122.19;5041066;28;20735;-68
2024/02/01 08:00:50;;;;;;;3.23;2.57;;;;;;;1.35;100.00;99118.97;5040838;28;20659;-73
2024/02/01 08:03:55;;;;;;;4.40;2.50;;;;;;;1.23;100.00;99105.22;5068428;28;20276;-70
2024/02/01 08:09:11;;;;;;;5.37;2.70;;;;;;;1.22;100.00;99089.63;5041166;28;20280;-70
2024/02/01 08:11:43;;;;;;;4.37;3.10;;;;;;;1.32;100.00;99095.66;5048872;28;20322;-70
2024/02/01 08:14:09;;;;;;;5.43;3.23;;;;;;;1.20;100.00;99081.09;5053852;28;20260;-69
2024/02/01 08:16:35;;;;;;;3.23;2.70;;;;;;;1.28;100.00;99094.31;5049887;28;20288;-68
2024/02/01 08:19:02;;;;;;;4.73;2.67;;;;;;;1.24;100.00;99079.84;5046327;28;20840;-68
2024/02/01 08:21:35;;;;;;;4.60;2.80;;;;;;;1.33;100.00;99081.56;5051640;28;20141;-69
2024/02/01 08:24:01;;;;;;;4.57;3.10;;;;;;;1.34;100.00;99077.16;5043775;28;20664;-68
2024/02/01 08:26:27;;;;;;;4.57;2.90;;;;;;;1.35;100.00;99074.38;5043580;28;20295;-69
2024/02/01 08:28:52;;;;;;;4.17;2.47;;;;;;;1.36;100.00;99060.31;5037561;28;20043;-68
2024/02/01 08:31:18;;;;;;;6.33;2.77;;;;;;;1.36;100.00;99065.53;5038375;28;20287;-68
2024/02/01 08:33:44;;;;;;;3.17;2.50;;;;;;;1.47;100.00;99078.50;5041569;28;20124;-69
2024/02/01 08:36:17;;;;;;;4.17;2.77;;;;;;;1.42;100.00;99057.09;5046101;28;20040;-70
2024/02/01 08:38:43;;;;;;;5.20;2.33;;;;;;;1.38;100.00;99049.66;5042091;28;20687;-70
2024/02/01 08:41:11;;;;;;;4.33;2.87;;;;;;;1.48;100.00;99053.91;5046772;28;20283;-70
2024/02/01 08:43:38;;;;;;;3.13;2.60;;;;;;;1.46;100.00;99052.41;5033236;28;20164;-71
2024/02/01 08:46:04;;;;;;;3.77;2.77;;;;;;;1.35;100.00;99042.91;5044073;28;20064;-69
2024/02/01 08:48:30;;;;;;;6.20;3.37;;;;;;;1.35;100.00;99037.66;5037009;28;20421;-70
2024/02/01 08:50:55;;;;;;;3.17;2.87;;;;;;;1.43;100.00;99045.63;5042820;28;20106;-69
2024/02/01 08:53:22;;;;;;;2.80;2.60;;;;;;;1.42;100.00;99046.59;5043584;28;20047;-69
2024/02/01 08:55:52;;;;;;;2.77;2.57;;;;;;;1.42;100.00;99032.66;5040053;28;20041;-69
2024/02/01 08:58:18;;;;;;;3.90;2.30;;;;;;;1.56;100.00;99053.16;5040193;28;20704;-69
2024/02/01 09:00:44;;;;;;;2.80;2.20;;;;;;;1.51;100.00;99037.88;5047263;28;20276;-68
2024/02/01 09:03:17;;;;;;;3.57;2.23;;;;;;;1.49;100.00;99055.56;5041692;28;20845;-70
2024/02/01 09:05:44;;;;;;;3.00;2.47;;;;;;;1.36;100.00;99028.81;5042685;28;20056;-68
2024/02/01 09:08:35;;;;;;;3.57;2.13;;;;;;;1.50;100.00;99045.88;5048794;28;20839;-68
2024/02/01 09:11:09;;;;;;;2.67;2.30;;;;;;;1.48;100.00;99037.34;5052009;28;20341;-69
2024/02/01 09:13:35;;;;;;;7.07;3.87;;;;;;;1.31;100.00;99028.44;5051672;28;20307;-69
2024/02/01 09:16:02;;;;;;;3.53;2.00;;;;;;;1.20;100.00;99023.41;5042414;28;20316;-68
2024/02/01 09:18:29;;;;;;;3.73;2.43;;;;;;;1.20;100.00;99036.50;5051366;28;20326;-71
2024/02/01 09:20:55;;;;;;;2.40;2.20;;;;;;;1.13;100.00;99020.50;5051559;28;20287;-67
2024/02/01 09:23:22;;;;;;;8.90;2.97;;;;;;;1.11;100.00;99032.94;5050875;28;20291;-67
2024/02/01 09:25:48;;;;;;;2.93;2.27;;;;;;;1.05;100.00;99028.28;5041772;28;20038;-72
2024/02/01 09:28:14;;;;;;;3.57;2.10;;;;;;;0.89;100.00;98986.16;5046066;28;20263;-73
2024/02/01 09:30:48;;;;;;;4.53;2.10;;;;;;;0.95;100.00;98987.38;5039803;28;20268;-70
2024/02/01 09:33:18;;;;;;;2.90;1.77;;;;;;;1.05;100.00;99019.59;5042888;28;20287;-72
2024/02/01 09:35:45;;;;;;;4.13;2.63;;;;;;;0.98;100.00;98997.56;5037922;28;20315;-71
2024/02/01 09:38:11;;;;;;;2.83;2.10;;;;;;;0.19;100.00;98891.41;5039251;28;20280;-68
2024/02/01 09:40:43;;;;;;;4.00;2.30;;;;;;;1.03;100.00;99006.63;5039619;28;20276;-69
2024/02/01 09:43:22;;;;;;;4.43;2.20;;;;;;;0.50;100.00;98919.97;5036031;28;20769;-68
2024/02/01 09:45:48;;;;;;;;;;;;;;;1.13;100.00;98990.84;5039068;28;20291;-69
2024/02/01 09:48:18;;;;;;;2.53;2.30;;;;;;;1.08;100.00;98990.47;5043192;28;19928;-67
2024/02/01 09:51:03;;;;;;;5.73;2.17;;;;;;;1.14;100.00;98984.63;5048506;28;20068;-69
2024/02/01 09:56:31;;;;;;;2.93;2.30;;;;;;;1.01;100.00;98950.91;5042776;28;20732;-67
2024/02/01 09:58:56;;;;;;;1.90;1.70;;;;;;;1.10;100.00;98950.03;5039272;28;20624;-71
2024/02/01 10:01:24;;;;;;;3.30;2.57;;;;;;;1.29;100.00;98964.00;5035538;28;20299;-70
2024/02/01 10:04:10;;;;;;;5.80;2.17;;;;;;;1.33;100.00;98981.91;5045013;28;20047;-68
2024/02/01 10:06:37;;;;;;;2.23;2.03;;;;;;;1.04;100.00;98913.91;5043839;28;20334;-69
2024/02/01 10:12:03;;;;;;;3.87;2.60;;;;;;;1.52;100.00;98967.84;5043132;28;20311;-71
2024/02/01 10:14:35;;;;;;;4.33;3.93;;;;;;;1.50;100.00;98956.69;5035699;28;20730;-69
2024/02/01 10:17:05;;;;;;;3.57;2.60;;;;;;;1.53;100.00;98957.22;5048612;28;20094;-67
2024/02/01 10:19:52;;;;;;;3.20;2.00;;;;;;;1.60;100.00;98956.63;5036419;28;20846;-69
2024/02/01 10:22:19;;;;;;;2.97;1.93;;;;;;;1.41;100.00;98932.16;5072317;28;20373;-66
2024/02/01 10:24:48;;;;;;;3.67;2.43;;;;;;;1.55;100.00;98959.69;5044495;28;20695;-67
2024/02/01 10:27:21;;;;;;;5.00;2.20;;;;;;;1.50;100.00;98936.53;5046001;28;20279;-67
2024/02/01 10:29:47;;;;;;;2.67;1.90;;;;;;;1.60;100.00;98967.09;5044139;28;20311;-67
2024/02/01 10:32:14;;;;;;;4.57;2.03;;;;;;;1.53;100.00;98946.72;5024126;28;20810;-69
2024/02/01 10:37:31;;;;;;;2.97;1.90;;;;;;;1.53;100.00;98941.47;5042130;28;20867;-70
2024/02/01 10:40:10;;;;;;;4.18;1.98;;;;;;;1.50;100.00;98928.66;5043754;28;20323;-71
2024/02/01 10:42:38;;;;;;;7.53;1.98;;;;;;;1.50;100.00;98926.03;5041118;28;20046;-68
2024/02/01 10:45:09;;;;;;;2.30;1.90;;;;;;;1.69;100.00;98939.97;5049035;28;20041;-69
2024/02/01 10:47:46;;;;;;;3.77;1.70;;;;;;;1.77;100.00;98945.31;5051460;28;20120;-69
2024/02/01 10:50:14;;;;;;;3.60;2.17;;;;;;;1.76;100.00;98925.28;5031405;28;20276;-69
2024/02/01 10:55:26;;;;;;;2.03;1.80;;;;;;;1.67;100.00;98926.16;5044237;28;20362;-70
2024/02/01 10:58:12;;;;;;;2.83;1.93;;;;;;;1.72;100.00;98927.34;5038307;28;20312;-68
2024/02/01 11:00:57;;;;;;;3.53;2.20;;;;;;;1.76;100.00;98925.28;5033481;28;20388;-72
2024/02/01 11:03:27;;;;;;;4.60;2.23;;;;;;;1.75;100.00;98931.50;5043459;28;20916;-70
2024/02/01 11:08:41;;;;;;;3.47;2.10;;;;;;;1.79;100.00;98940.72;5038155;28;20641;-69
2024/02/01 11:11:28;;;;;;;3.87;2.60;;;;;;;1.66;100.00;98914.84;5038049;28;20119;-70
2024/02/01 11:14:15;;;;;;;2.77;2.20;;;;;;;1.82;100.00;98930.75;5042246;28;20044;-69
2024/02/01 11:16:42;;;;;;;3.60;2.10;;;;;;;1.88;100.00;98942.44;5045997;28;20291;-68
2024/02/01 11:19:15;;;;;;;2.47;1.80;;;;;;;1.75;100.00;98907.88;5049573;28;20300;-69
2024/02/01 11:22:06;;;;;;;2.70;2.50;;;;;;;1.96;100.00;98933.78;5041592;28;20294;-70
2024/02/01 11:24:35;;;;;;;2.80;2.17;;;;;;;1.76;100.00;98906.91;5048223;28;20888;-69
2024/02/01 11:27:12;;;;;;;3.75;2.30;;;;;;;1.63;100.00;98888.09;5044594;28;20771;-69
2024/02/01 11:29:43;;;;;;;3.07;2.70;;;;;;;1.93;100.00;98944.59;5043206;28;20214;-69
2024/02/01 11:34:59;;;;;;;2.10;1.90;;;;;;;1.70;100.00;98889.13;5038656;28;20325;-68
2024/02/01 11:40:15;;;;;;;3.00;1.87;;;;;;;1.93;100.00;98934.91;5039182;28;20516;-67
2024/02/01 11:42:47;;;;;;;3.37;2.37;;;;;;;2.02;100.00;98934.00;5039875;28;20765;-67
2024/02/01 11:45:15;;;;;;;3.73;2.60;;;;;;;2.05;100.00;98941.59;5038333;28;20298;-70
2024/02/01 11:47:41;;;;;;;3.15;2.33;;;;;;;2.01;100.00;98934.97;5044515;28;20828;-69
2024/02/01 11:50:08;;;;;;;4.77;2.30;;;;;;;1.98;100.00;98924.78;5049342;28;20127;-68
2024/02/01 11:52:45;;;;;;;5.17;2.13;;;;;;;2.11;100.00;98934.91;5036886;28;20382;-70
2024/02/01 11:55:11;;;;;;;3.77;2.93;;;;;;;2.10;100.00;98928.81;5048261;28;20275;-69
2024/02/01 11:57:57;;;;;;;6.10;2.80;;;;;;;2.15;100.00;98926.56;5039265;28;20307;-69
2024/02/01 12:00:24;;;;;;;4.13;2.53;;;;;;;2.10;100.00;98928.81;5039482;28;20295;-65
2024/02/01 12:03:08;;;;;;;3.20;2.50;;;;;;;2.08;100.00;98925.53;5030873;28;20298;-69
2024/02/01 12:05:34;;;;;;;2.97;2.33;;;;;;;2.11;100.00;98935.72;5049863;28;20279;-70
2024/02/01 12:08:01;;;;;;;7.03;3.00;;;;;;;2.02;100.00;98901.66;5045618;28;20317;-69
2024/02/01 12:10:30;;;;;;;3.80;2.40;;;;;;;2.11;100.00;98919.97;5043279;28;20045;-69
2024/02/01 12:12:57;;;;;;;3.07;2.40;;;;;;;1.95;100.00;98896.22;5042915;28;20300;-68
2024/02/01 12:15:22;;;;;;;6.93;3.17;;;;;;;2.08;100.00;98922.09;5041394;28;20739;-66
2024/02/01 12:17:50;;;;;;;4.77;2.97;;;;;;;1.97;100.00;98896.88;5045118;28;20394;-67
2024/02/01 12:20:17;;;;;;;3.20;2.40;;;;;;;2.11;100.00;98925.22;5044794;28;20057;-70
2024/02/01 12:22:48;;;;;;;4.53;2.30;;;;;;;2.00;100.00;98901.81;5048834;28;20057;-73
2024/02/01 12:25:18;;;;;;;4.27;2.83;;;;;;;2.10;100.00;98918.31;5042506;28;20275;-69
2024/02/01 12:27:47;;;;;;;4.10;2.00;;;;;;;2.10;100.00;98926.19;5049824;28;20302;-68
2024/02/01 12:30:14;;;;;;;;;;;;;;;2.08;100.00;98919.47;5044429;28;20708;-70
2024/02/01 12:32:45;;;;;;;5.77;2.40;;;;;;;2.01;100.00;98911.34;5042014;28;19920;-71
2024/02/01 12:35:16;;;;;;;5.30;2.30;;;;;;;1.94;100.00;98907.69;5038317;28;20288;-73
2024/02/01 12:37:44;;;;;;;5.37;2.80;;;;;;;1.95;100.00;98901.47;5043044;28;20397;-72
2024/02/01 12:40:14;;;;;;;5.87;3.40;;;;;;;2.07;100.00;98918.63;5051106;28;20355;-71